createdAt,value
2018-11-22T00:00:35.228Z,30.70
2018-11-22T00:03:23.575Z,29.87
2018-11-22T00:06:11.892Z,29.27
2018-11-22T00:09:00.201Z,29.50
2018-11-22T00:11:48.519Z,29.65
2018-11-22T00:14:36.861Z,29.65
2018-11-22T00:17:25.166Z,29.37
2018-11-22T00:20:13.785Z,29.35
2018-11-22T00:23:02.105Z,27.82
2018-11-22T00:25:50.660Z,28.32
2018-11-22T00:28:38.994Z,29.00
2018-11-22T00:31:27.305Z,27.70
2018-11-22T00:34:15.650Z,27.48
2018-11-22T00:37:03.998Z,29.27
2018-11-22T00:39:52.326Z,29.50
2018-11-22T00:42:41.090Z,28.95
2018-11-22T00:45:29.882Z,27.15
2018-11-22T00:48:18.466Z,29.67
2018-11-22T00:51:06.760Z,28.00
2018-11-22T00:53:55.096Z,28.92
2018-11-22T00:56:43.409Z,28.40
2018-11-22T00:59:31.751Z,30.10
2018-11-22T01:02:20.062Z,27.48
2018-11-22T01:05:08.618Z,29.30
2018-11-22T01:07:56.924Z,30.40
2018-11-22T01:10:45.233Z,29.65
2018-11-22T01:13:33.550Z,28.98
2018-11-22T01:16:21.874Z,29.18
2018-11-22T01:19:10.546Z,29.30
2018-11-22T01:21:58.848Z,31.40
2018-11-22T01:24:47.255Z,30.37
2018-11-22T01:27:35.579Z,30.05
2018-11-22T01:30:25.040Z,30.27
2018-11-22T01:33:13.353Z,30.90
2018-11-22T01:36:02.033Z,30.48
2018-11-22T01:38:50.357Z,30.50
2018-11-22T01:41:19.649Z,30.43
2018-11-22T01:44:08.030Z,31.70
2018-11-22T01:46:56.348Z,30.60
2018-11-22T01:49:45.569Z,30.25
2018-11-22T01:52:33.929Z,31.55
2018-11-22T01:55:23.222Z,29.50
2018-11-22T01:58:11.564Z,33.05
2018-11-22T02:01:00.178Z,30.85
2018-11-22T02:03:48.536Z,30.15
2018-11-22T02:06:37.152Z,31.10
2018-11-22T02:09:25.452Z,31.87
2018-11-22T02:12:13.804Z,32.20
2018-11-22T02:15:02.358Z,31.73
2018-11-22T02:17:50.664Z,32.23
2018-11-22T02:20:38.966Z,32.55
2018-11-22T02:23:27.283Z,31.40
2018-11-22T02:26:15.628Z,32.00
2018-11-22T02:29:03.971Z,29.90
2018-11-22T02:31:52.314Z,32.00
2018-11-22T02:34:40.638Z,29.65
2018-11-22T02:37:28.982Z,30.05
2018-11-22T02:40:18.754Z,30.77
2018-11-22T02:43:07.764Z,29.35
2018-11-22T02:45:56.099Z,32.25
2018-11-22T02:48:44.430Z,29.75
2018-11-22T02:51:32.764Z,31.95
2018-11-22T02:54:21.135Z,32.10
2018-11-22T02:57:09.477Z,30.20
2018-11-22T02:59:58.359Z,31.45
2018-11-22T03:02:46.690Z,31.70
2018-11-22T03:05:35.026Z,30.75
2018-11-22T03:08:23.410Z,29.80
2018-11-22T03:11:11.743Z,30.30
2018-11-22T03:14:00.071Z,29.52
2018-11-22T03:16:48.385Z,31.55
2018-11-22T03:19:36.949Z,30.30
2018-11-22T03:22:25.284Z,28.90
2018-11-22T03:25:14.995Z,29.57
2018-11-22T03:28:03.337Z,30.57
2018-11-22T03:30:51.678Z,30.43
2018-11-22T03:33:40.020Z,29.75
2018-11-22T03:36:28.941Z,29.60
2018-11-22T03:39:17.538Z,30.92
2018-11-22T03:42:05.880Z,29.63
2018-11-22T03:44:54.560Z,31.27
2018-11-22T03:47:43.295Z,29.90
2018-11-22T03:50:31.606Z,31.05
2018-11-22T03:53:20.167Z,28.85
2018-11-22T03:56:08.490Z,31.48
2018-11-22T03:58:56.800Z,32.20
2018-11-22T04:01:45.183Z,31.90
2018-11-22T04:04:33.503Z,32.03
2018-11-22T04:07:21.911Z,31.75
2018-11-22T04:10:11.474Z,34.75
2018-11-22T04:12:59.769Z,33.20
2018-11-22T04:15:48.085Z,33.13
2018-11-22T04:18:36.403Z,33.80
2018-11-22T04:21:24.749Z,33.78
2018-11-22T04:24:13.539Z,35.43
2018-11-22T04:27:01.880Z,35.00
2018-11-22T04:29:50.179Z,35.30
2018-11-22T04:32:38.499Z,34.25
2018-11-22T04:35:27.019Z,33.53
2018-11-22T04:38:15.624Z,34.10
2018-11-22T04:41:03.961Z,36.17
2018-11-22T04:43:52.329Z,35.80
2018-11-22T04:46:40.953Z,34.63
2018-11-22T04:49:29.298Z,35.70
2018-11-22T04:52:17.657Z,36.35
2018-11-22T04:55:06.336Z,36.30
2018-11-22T04:57:57.971Z,37.45
2018-11-22T05:00:42.998Z,36.48
2018-11-22T05:03:31.320Z,37.83
2018-11-22T05:06:19.677Z,36.23
2018-11-22T05:09:08.917Z,37.95
2018-11-22T05:11:57.257Z,36.63
2018-11-22T05:14:45.622Z,38.02
2018-11-22T05:17:34.285Z,36.83
2018-11-22T05:20:23.437Z,37.63
2018-11-22T05:23:11.779Z,37.73
2018-11-22T05:26:00.106Z,37.38
2018-11-22T05:28:48.441Z,38.45
2018-11-22T05:31:36.798Z,35.80
2018-11-22T05:34:25.396Z,36.70
2018-11-22T05:37:13.742Z,37.63
2018-11-22T05:40:02.318Z,38.05
2018-11-22T05:42:50.690Z,38.73
2018-11-22T05:45:39.268Z,38.15
2018-11-22T05:48:27.615Z,39.05
2018-11-22T05:51:16.151Z,38.48
2018-11-22T05:54:04.779Z,37.98
2018-11-22T05:56:53.374Z,38.23
2018-11-22T05:59:41.739Z,38.20
2018-11-22T06:02:30.236Z,39.77
2018-11-22T06:05:19.734Z,39.27
2018-11-22T06:08:08.066Z,37.73
2018-11-22T06:10:56.389Z,37.78
2018-11-22T06:13:44.713Z,38.85
2018-11-22T06:16:33.052Z,38.83
2018-11-22T06:19:21.398Z,36.27
2018-11-22T06:22:10.048Z,38.33
2018-11-22T06:25:03.614Z,38.02
2018-11-22T06:27:47.485Z,38.13
2018-11-22T06:30:36.117Z,38.80
2018-11-22T06:33:17.276Z,37.03
2018-11-22T06:35:58.187Z,38.85
2018-11-22T06:38:39.294Z,37.73
2018-11-22T06:41:20.351Z,37.30
2018-11-22T06:44:01.701Z,37.65
2018-11-22T06:46:42.954Z,40.00
2018-11-22T06:49:24.353Z,37.42
2018-11-22T06:52:04.992Z,39.80
2018-11-22T06:54:46.102Z,39.38
2018-11-22T06:57:27.364Z,39.73
2018-11-22T07:00:07.978Z,37.38
2018-11-22T07:02:49.972Z,38.67
2018-11-22T07:05:31.468Z,39.20
2018-11-22T07:08:12.730Z,37.98
2018-11-22T07:10:53.703Z,38.80
2018-11-22T07:13:34.293Z,37.63
2018-11-22T07:16:15.376Z,38.67
2018-11-22T07:18:56.449Z,36.53
2018-11-22T07:21:37.782Z,38.67
2018-11-22T07:24:18.963Z,38.98
2018-11-22T07:26:59.875Z,38.75
2018-11-22T07:29:41.264Z,38.40
2018-11-22T07:32:22.403Z,37.98
2018-11-22T07:35:03.544Z,39.50
2018-11-22T07:37:44.891Z,39.18
2018-11-22T07:40:21.050Z,36.80
2018-11-22T07:43:09.407Z,37.98
2018-11-22T07:45:57.760Z,38.60
2018-11-22T07:48:46.131Z,38.78
2018-11-22T07:51:34.501Z,40.30
2018-11-22T07:54:22.886Z,39.75
2018-11-22T07:57:11.210Z,40.08
2018-11-22T07:59:59.541Z,39.08
2018-11-22T08:02:48.674Z,40.40
2018-11-22T08:05:38.539Z,38.40
2018-11-22T08:08:26.875Z,40.20
2018-11-22T08:11:15.213Z,40.92
2018-11-22T08:14:03.541Z,39.40
2018-11-22T08:16:51.897Z,38.63
2018-11-22T08:19:40.229Z,39.70
2018-11-22T08:22:28.598Z,39.00
2018-11-22T08:25:18.340Z,38.00
2018-11-22T08:28:06.702Z,38.67
2018-11-22T08:30:55.038Z,40.00
2018-11-22T08:33:43.376Z,40.12
2018-11-22T08:36:31.703Z,39.05
2018-11-22T08:39:20.107Z,36.35
2018-11-22T08:42:08.438Z,36.45
2018-11-22T08:44:56.789Z,38.00
2018-11-22T08:47:45.220Z,38.08
2018-11-22T08:50:33.649Z,40.00
2018-11-22T08:53:21.988Z,38.38
2018-11-22T08:56:10.869Z,38.20
2018-11-22T08:58:59.179Z,39.40
2018-11-22T09:01:47.837Z,37.95
2018-11-22T09:04:36.221Z,38.13
2018-11-22T09:07:24.854Z,38.25
2018-11-22T09:10:14.168Z,37.73
2018-11-22T09:13:03.433Z,37.38
2018-11-22T09:15:51.765Z,38.95
2018-11-22T09:18:40.094Z,35.75
2018-11-22T09:21:28.733Z,39.42
2018-11-22T09:24:17.494Z,37.75
2018-11-22T09:27:05.690Z,38.25
2018-11-22T09:29:54.564Z,36.20
2018-11-22T09:32:43.594Z,37.93
2018-11-22T09:35:33.312Z,36.33
2018-11-22T09:38:02.549Z,37.23
2018-11-22T09:40:50.880Z,37.55
2018-11-22T09:43:39.201Z,36.70
2018-11-22T09:46:27.550Z,37.70
2018-11-22T09:49:15.903Z,36.48
2018-11-22T09:52:04.233Z,36.33
2018-11-22T09:54:52.566Z,36.35
2018-11-22T09:57:41.218Z,38.67
2018-11-22T10:00:29.553Z,37.33
2018-11-22T10:03:17.938Z,36.35
2018-11-22T10:06:06.715Z,36.70
2018-11-22T10:08:55.314Z,39.10
2018-11-22T10:11:43.664Z,37.75
2018-11-22T10:14:32.028Z,35.37
2018-11-22T10:17:20.372Z,38.07
2018-11-22T10:20:10.141Z,37.23
2018-11-22T10:22:59.184Z,37.73
2018-11-22T10:25:47.539Z,37.03
2018-11-22T10:28:35.895Z,37.25
2018-11-22T10:31:24.637Z,37.35
2018-11-22T10:34:13.177Z,36.98
2018-11-22T10:37:01.513Z,37.63
2018-11-22T10:39:49.861Z,36.00
2018-11-22T10:42:38.302Z,38.67
2018-11-22T10:45:45.379Z,37.75
2018-11-22T10:48:33.725Z,36.97
2018-11-22T10:51:22.352Z,37.80
2018-11-22T10:54:10.681Z,35.00
2018-11-22T10:56:59.009Z,36.30
2018-11-22T10:59:47.368Z,36.20
2018-11-22T11:02:54.500Z,34.48
2018-11-22T11:06:01.668Z,35.90
2018-11-22T11:08:50.026Z,35.40
2018-11-22T11:11:38.366Z,35.28
2018-11-22T11:14:26.979Z,35.33
2018-11-22T11:17:15.661Z,33.08
2018-11-22T11:20:04.320Z,35.38
2018-11-22T11:22:52.585Z,34.37
2018-11-22T11:25:40.991Z,35.55
2018-11-22T11:28:29.568Z,33.40
2018-11-22T11:31:17.892Z,35.30
2018-11-22T11:34:06.223Z,36.63
2018-11-22T11:36:54.814Z,35.55
2018-11-22T11:39:24.141Z,37.00
2018-11-22T11:42:12.471Z,34.67
2018-11-22T11:45:03.395Z,35.90
2018-11-22T11:47:51.740Z,37.90
2018-11-22T11:50:40.344Z,36.33
2018-11-22T11:53:41.048Z,37.10
2018-11-22T11:56:17.004Z,36.60
2018-11-22T11:59:05.822Z,37.30
2018-11-22T12:01:54.149Z,39.40
2018-11-22T12:04:42.529Z,38.08
2018-11-22T12:07:30.860Z,37.42
2018-11-22T12:10:20.446Z,37.60
2018-11-22T12:13:08.947Z,38.05
2018-11-22T12:15:57.281Z,38.70
2018-11-22T12:18:45.625Z,37.03
2018-11-22T12:21:34.015Z,38.08
2018-11-22T12:24:22.285Z,38.02
2018-11-22T12:27:10.613Z,38.45
2018-11-22T12:29:59.229Z,37.50
2018-11-22T12:33:06.365Z,39.60
2018-11-22T12:36:13.548Z,39.98
2018-11-22T12:39:01.831Z,39.35
2018-11-22T12:41:50.495Z,40.38
2018-11-22T12:44:39.282Z,38.83
2018-11-22T12:47:27.869Z,37.57
2018-11-22T12:50:16.208Z,38.23
2018-11-22T12:53:04.542Z,39.10
2018-11-22T12:55:52.913Z,36.70
2018-11-22T12:58:41.244Z,37.63
2018-11-22T13:01:29.565Z,38.10
2018-11-22T13:04:17.870Z,38.63
2018-11-22T13:07:06.225Z,40.45
2018-11-22T13:09:54.540Z,39.92
2018-11-22T13:12:44.129Z,39.25
2018-11-22T13:15:32.507Z,38.50
2018-11-22T13:18:20.870Z,36.95
2018-11-22T13:21:09.432Z,38.10
2018-11-22T13:23:57.810Z,39.05
2018-11-22T13:26:46.279Z,40.45
2018-11-22T13:29:34.967Z,39.20
2018-11-22T13:32:23.362Z,38.95
2018-11-22T13:35:12.454Z,38.53
2018-11-22T13:38:00.770Z,36.98
2018-11-22T13:40:49.084Z,37.63
2018-11-22T13:43:37.437Z,39.20
2018-11-22T13:46:25.812Z,37.78
2018-11-22T13:49:14.135Z,36.30
2018-11-22T13:52:02.683Z,39.30
2018-11-22T13:54:51.226Z,38.53
2018-11-22T14:00:34.630Z,38.95
2018-11-22T14:03:23.247Z,39.65
2018-11-22T14:06:11.849Z,38.80
2018-11-22T14:09:00.188Z,38.10
2018-11-22T14:11:48.767Z,39.92
2018-11-22T14:14:37.343Z,39.60
2018-11-22T14:17:25.671Z,38.10
2018-11-22T14:20:15.371Z,39.33
2018-11-22T14:23:03.720Z,40.08
2018-11-22T14:25:32.966Z,41.05
2018-11-22T14:28:21.304Z,39.95
2018-11-22T14:31:09.891Z,40.15
2018-11-22T14:33:58.229Z,39.93
2018-11-22T14:36:46.605Z,40.38
2018-11-22T14:39:35.193Z,39.15
2018-11-22T14:42:23.520Z,39.73
2018-11-22T14:45:13.022Z,39.13
2018-11-22T14:48:02.599Z,39.42
2018-11-22T14:51:09.982Z,40.85
2018-11-22T14:53:58.339Z,39.78
2018-11-22T14:56:46.681Z,40.05
2018-11-22T14:59:35.065Z,38.83
2018-11-22T15:02:23.670Z,39.98
2018-11-22T15:05:12.653Z,39.42
2018-11-22T15:08:00.970Z,39.15
2018-11-22T15:10:49.604Z,40.55
2018-11-22T15:13:37.919Z,42.60
2018-11-22T15:16:26.276Z,41.40
2018-11-22T15:19:14.592Z,38.60
2018-11-22T15:22:02.970Z,41.08
2018-11-22T15:24:51.555Z,39.40
2018-11-22T15:27:40.131Z,40.10
2018-11-22T15:30:29.596Z,41.85
2018-11-22T15:33:17.855Z,40.48
2018-11-22T15:36:06.249Z,40.97
2018-11-22T15:38:54.608Z,40.70
2018-11-22T15:41:43.325Z,41.83
2018-11-22T15:44:31.891Z,42.03
2018-11-22T15:47:20.256Z,39.83
2018-11-22T15:50:09.650Z,44.20
2018-11-22T15:52:58.071Z,42.40
2018-11-22T15:55:46.412Z,41.15
2018-11-22T15:58:35.115Z,41.58
2018-11-22T16:01:23.443Z,40.88
2018-11-22T16:04:11.778Z,42.48
2018-11-22T16:07:00.121Z,41.85
2018-11-22T16:09:48.448Z,40.20
2018-11-22T16:12:36.788Z,43.30
2018-11-22T16:15:45.771Z,40.65
2018-11-22T16:18:34.135Z,42.00
2018-11-22T16:21:22.474Z,41.73
2018-11-22T16:24:10.822Z,43.50
2018-11-22T16:26:59.231Z,40.03
2018-11-22T16:29:47.819Z,41.37
2018-11-22T16:32:36.152Z,41.50
2018-11-22T16:35:32.803Z,40.60
2018-11-22T16:38:14.106Z,43.65
2018-11-22T16:41:02.480Z,43.80
2018-11-22T16:43:50.840Z,43.10
2018-11-22T16:46:39.202Z,43.10
2018-11-22T16:49:27.548Z,42.80
2018-11-22T16:52:15.886Z,43.58
2018-11-22T16:55:04.231Z,43.48
2018-11-22T16:57:53.619Z,43.33
2018-11-22T17:03:36.000Z,44.90
2018-11-22T17:06:24.329Z,44.05
2018-11-22T17:09:12.673Z,43.80
2018-11-22T17:11:53.933Z,45.48
2018-11-22T17:14:34.749Z,44.20
2018-11-22T17:17:15.472Z,44.70
2018-11-22T17:19:56.686Z,43.75
2018-11-22T17:22:37.516Z,43.30
2018-11-22T17:25:22.743Z,45.75
2018-11-22T17:28:05.358Z,44.80
2018-11-22T17:30:46.354Z,42.85
2018-11-22T17:33:27.586Z,43.33
2018-11-22T17:36:08.673Z,43.70
2018-11-22T17:38:49.637Z,43.45
2018-11-22T17:41:31.123Z,44.50
2018-11-22T17:44:11.955Z,43.30
2018-11-22T17:46:52.669Z,42.67
2018-11-22T17:49:33.443Z,42.95
2018-11-22T17:52:14.528Z,43.40
2018-11-22T17:54:56.525Z,40.58
2018-11-22T17:57:37.561Z,41.90
2018-11-22T18:00:19.784Z,40.98
2018-11-22T18:03:02.141Z,41.40
2018-11-22T18:05:43.094Z,42.13
2018-11-22T18:08:24.204Z,41.90
2018-11-22T18:11:04.729Z,42.77
2018-11-22T18:13:45.920Z,44.65
2018-11-22T18:16:25.427Z,42.08
2018-11-22T18:19:13.797Z,41.50
2018-11-22T18:22:02.768Z,40.63
2018-11-22T18:24:32.739Z,39.00
2018-11-22T18:27:21.246Z,41.90
2018-11-22T18:30:14.821Z,43.68
2018-11-22T18:33:04.398Z,43.70
2018-11-22T18:35:52.764Z,39.85
2018-11-22T18:38:41.149Z,42.98
2018-11-22T18:41:29.692Z,42.43
2018-11-22T18:44:18.041Z,40.30
2018-11-22T18:47:06.412Z,42.17
2018-11-22T18:49:54.737Z,40.05
2018-11-22T18:52:43.505Z,40.25
2018-11-22T18:55:32.116Z,42.35
2018-11-22T18:58:20.685Z,41.28
2018-11-22T19:01:09.040Z,41.48
2018-11-22T19:07:05.597Z,40.40
2018-11-22T19:09:53.933Z,41.28
2018-11-22T19:12:43.018Z,40.70
2018-11-22T19:15:33.196Z,42.67
2018-11-22T19:18:21.521Z,40.38
2018-11-22T19:21:09.886Z,41.50
2018-11-22T19:23:58.306Z,42.17
2018-11-22T19:26:46.957Z,41.70
2018-11-22T19:29:35.265Z,42.48
2018-11-22T19:32:23.594Z,42.50
2018-11-22T19:38:20.392Z,42.27
2018-11-22T19:41:08.693Z,43.02
2018-11-22T19:43:57.317Z,40.38
2018-11-22T19:46:45.647Z,41.33
2018-11-22T19:49:33.977Z,40.85
2018-11-22T19:52:22.735Z,41.55
2018-11-22T19:55:12.834Z,42.73
2018-11-22T19:58:02.675Z,42.13
2018-11-22T20:00:50.993Z,40.75
2018-11-22T20:03:39.372Z,41.18
2018-11-22T20:06:27.956Z,40.48
2018-11-22T20:09:18.821Z,42.78
2018-11-22T20:12:07.162Z,43.30
2018-11-22T20:15:03.038Z,41.33
2018-11-22T20:17:52.087Z,41.73
2018-11-22T20:20:40.423Z,40.60
2018-11-22T20:23:28.763Z,40.48
2018-11-22T20:25:58.268Z,41.42
2018-11-22T20:28:46.635Z,39.92
2018-11-22T20:31:34.984Z,41.68
2018-11-22T20:34:23.398Z,41.90
2018-11-22T20:37:11.733Z,40.80
2018-11-22T20:40:00.124Z,41.90
2018-11-22T20:42:48.457Z,41.13
2018-11-22T20:45:40.918Z,42.45
2018-11-22T20:51:19.540Z,43.42
2018-11-22T20:54:07.966Z,42.70
2018-11-22T20:56:56.303Z,42.05
2018-11-22T20:59:44.675Z,43.15
2018-11-22T21:02:33.033Z,42.73
2018-11-22T21:05:23.019Z,41.95
2018-11-22T21:08:11.330Z,42.93
2018-11-22T21:10:59.914Z,43.25
2018-11-22T21:13:48.285Z,44.98
2018-11-22T21:16:36.609Z,43.50
2018-11-22T21:19:25.488Z,42.00
2018-11-22T21:22:13.866Z,45.08
2018-11-22T21:25:02.197Z,43.30
2018-11-22T21:27:50.528Z,44.83
2018-11-22T21:30:39.945Z,43.75
2018-11-22T21:33:28.282Z,44.23
2018-11-22T21:36:16.910Z,43.75
2018-11-22T21:39:07.142Z,44.15
2018-11-22T21:41:55.732Z,43.65
2018-11-22T21:44:44.262Z,43.60
2018-11-22T21:47:33.332Z,44.20
2018-11-22T21:50:23.018Z,44.88
2018-11-22T21:53:11.369Z,45.80
2018-11-22T21:55:59.709Z,43.85
2018-11-22T21:58:48.041Z,45.70
2018-11-22T22:01:36.600Z,44.60
2018-11-22T22:04:24.907Z,45.30
2018-11-22T22:07:13.244Z,46.92
2018-11-22T22:10:01.576Z,44.60
2018-11-22T22:12:49.932Z,45.98
2018-11-22T22:15:38.768Z,44.77
2018-11-22T22:18:27.087Z,45.80
2018-11-22T22:21:34.714Z,45.38
2018-11-22T22:24:03.972Z,46.63
2018-11-22T22:26:52.299Z,45.60
2018-11-22T22:29:40.607Z,45.03
2018-11-22T22:32:28.960Z,45.73
2018-11-22T22:35:17.294Z,46.40
2018-11-22T22:38:05.655Z,47.05
2018-11-22T22:40:53.988Z,47.43
2018-11-22T22:43:42.335Z,44.75
2018-11-22T22:46:30.669Z,46.23
2018-11-22T22:49:19.001Z,47.58
2018-11-22T22:52:07.355Z,46.02
2018-11-22T22:54:55.677Z,47.70
2018-11-22T22:57:44.364Z,46.15
2018-11-22T23:00:51.500Z,47.93
2018-11-22T23:03:39.841Z,47.17
2018-11-22T23:06:28.173Z,46.20
2018-11-22T23:09:16.492Z,47.53
2018-11-22T23:12:04.840Z,48.00
2018-11-22T23:14:53.162Z,45.88
2018-11-22T23:17:41.960Z,47.70
2018-11-22T23:20:34.348Z,48.75
2018-11-22T23:23:22.695Z,49.65
2018-11-22T23:26:11.321Z,50.55
2018-11-22T23:28:59.628Z,49.00
2018-11-22T23:31:47.955Z,50.20
2018-11-22T23:34:36.337Z,49.38
2018-11-22T23:37:05.720Z,48.80
2018-11-22T23:39:54.049Z,49.45
2018-11-22T23:42:42.725Z,49.65
2018-11-22T23:45:32.095Z,50.80
2018-11-22T23:48:20.715Z,50.52
2018-11-22T23:51:09.025Z,51.40
2018-11-22T23:53:57.708Z,50.70
2018-11-22T23:56:46.035Z,49.45
2018-11-22T23:59:34.607Z,50.12
